Lucas Cabrera

Chief Scout - Betis
2 Jul 2028
Sunday
Process

Personality

Adaptability (19) Ambition (18) Controversy (1) Loyalty (16) Pressure (14) Professionalism (19) Sportsmanship (16) Temperament (15)

Profile

Coaching Style Democratic
License Continental Pro
Determination 15
Man Management 15
Motivating 13
Discipline 15
Job Satisfaction
36%
Fatigue
0%
Role Chief Scout
Wage 21.2K p/w
Contract 14.03.2029

Performance

Behaviour Good
Training Effectiveness
19%
Player Development
50%
Injury Prevention
35%
Tactical Implementation
50%

Recent Events

Recommended a transfer target now
Recommended a transfer target now
Recommended a transfer target now
Recommended a transfer target now
Recommended a transfer target now
Assessed a player now
Assessed a player now
Assessed a player now

Currently Monitoring

191
Player Club Status Ability Confidence Watched Last Observed Latest Vote
Ayden Heaven Portsmouth Active 147 / 149 40% 8 30.06.2028 -
Honest Ahanor Atalanta Active 137 / 148 40% 17 30.06.2028 -
Bernardo Lima Porto Active 112 / 116 40% 7 30.06.2028 -
Tobías Ramírez River Plate Lost 132 / 145 40% 2 29.06.2028 -
Daniel Banjaqui Benfica Active 126 / 126 40% 2 28.06.2028 -
Andrey Ivlev Nizhniy Novgorod Active 118 / 108 40% 1 28.06.2028 -
Jorge Salinas Racing Santander Active 133 / 143 40% 8 27.06.2028 -
Lamine Bèye Portimonense Active 115 / 120 40% 2 26.06.2028 -
Sebastian Rodriguez Houston Dynamo Active 114 / 118 40% 1 26.06.2028 -
Andrija Bulatović Chamois Niortais Active 129 / 128 40% 2 25.06.2028 -
Thulani Manyama SuperSport United Active 117 / 135 40% 1 25.06.2028 -
Kiani Inge Groningen Active 114 / 113 40% 1 25.06.2028 -
Nathan De Cat SC Freiburg Active 133 / 141 40% 2 24.06.2028 -
Jan Bürger Northampton Town Active 122 / 127 40% 4 21.06.2028 -
Cheveyo Tsawa Club Brugge Active 128 / 126 40% 1 21.06.2028 -
Josh King Newcastle United Active 147 / 157 40% 18 20.06.2028 -
Dmitry Pestryakov Krasnodar Active 115 / 135 40% 2 20.06.2028 -
Sam Tickle Modena Active 141 / 145 40% 1 19.06.2028 -
Đorđe Petrović Olympique de Marseille Active 157 / 157 40% 1 19.06.2028 -
Noah Fernandez PSV Active 122 / 133 40% 8 10.06.2028 -
Gabe Forsyth Colchester United Active 111 / 114 40% 1 10.06.2028 -
Ryan Kavuma-McQueen Accrington Stanley Active 121 / 130 40% 11 09.06.2028 -
Endrick Boca Juniors Active 156 / 168 40% 6 09.06.2028 -
Héctor Fort Real Sociedad Active 148 / 149 40% 7 08.06.2028 -
Ryunosuke Sato Eibar Active 138 / 130 40% 8 08.06.2028 -
Rio Ngumoha Plymouth Argyle Active 140 / 145 40% 5 08.06.2028 -
Sindre Walle Egeli Udinese Active 141 / 148 40% 10 06.06.2028 -
Manu Fuster Las Palmas Lost 132 / 135 86% 1 06.06.2028 -
Babis Kostoulas Oxford United Active 143 / 152 40% 11 05.06.2028 -
Luca Williams-Barnett Walsall Active 123 / 132 40% 21 05.06.2028 -
Kerim Alajbegović Modena Active 132 / 142 40% 2 04.06.2028 -
Chupete Málaga Report Ready 137 / 128 86% 1 03.06.2028 -
Riquelme Thompson-Jones Accrington Stanley Active 110 / 108 40% 1 31.05.2028 -
Jorthy Mokio ADO Den Haag Active 131 / 142 40% 1 31.05.2028 -
Pablo García Racing Santander Active 133 / 146 40% 4 25.05.2028 -
Trey Nyoni Rotherham United Active 139 / 137 40% 2 25.05.2028 -
Igor Tyjon Barrow AFC Active 115 / 119 40% 4 24.05.2028 -
Tyler Fletcher Rotherham United Active 110 / 109 40% 4 24.05.2028 -
Ryan McAidoo Oldham Athletic Active 121 / 125 40% 5 23.05.2028 -
Eli Junior Kroupi Bournemouth Active 144 / 157 40% 7 19.05.2028 -
Shea Lacey Crystal Palace Active 136 / 144 40% 4 19.05.2028 -
Giovanni Cantizano Fulham Active 120 / 124 40% 4 18.05.2028 -
Ibrahim Fullah Charlton Athletic Active 124 / 129 40% 3 16.05.2028 -
Omar Khedr Gillingham Active 114 / 119 40% 2 15.05.2028 -
Aarón Ochoa Málaga Active 124 / 120 40% 4 13.05.2028 -
Ben Broggio Mansfield Town Active 109 / 115 40% 6 12.05.2028 -
Amin Nabizada Exeter City Active 110 / 126 40% 6 12.05.2028 -
Oscar Schwartau Norwich City Active 127 / 135 40% 8 03.05.2028 -
Josh Nichols Oldham Athletic Active 121 / 123 40% 10 28.04.2028 -
Mateus Mané Burnley Active 141 / 140 40% 12 15.04.2028 -
Jan Virgili Club Brugge Active 141 / 137 40% 6 06.04.2028 -
Jake Evans Crewe Alexandra Active 112 / 114 40% 1 06.04.2028 -
Julien Duranville Olympique Lyonnais Active 140 / 140 40% 2 04.04.2028 -
André Miranda Porto Active 116 / 120 40% 2 02.04.2028 -
Siyabonga Mabena Bidvest Wits Active 123 / 144 40% 4 31.03.2028 -
Rémi Himbert AC Ajaccio Active 118 / 126 40% 7 17.03.2028 -
Josh Acheampong Everton Active 142 / 143 40% 5 10.03.2028 -
Kauã Elias Shakhtar Active 137 / 128 40% 5 08.03.2028 -
William Gomes Porto Active 151 / 156 40% 11 07.03.2028 -
Henrique Carmo Sochi Active 128 / 136 40% 2 07.03.2028 -
Archie Gray Southampton Active 154 / 163 40% 8 01.03.2028 -
Luca Meirelles Kudrivka Active 124 / 137 40% 3 01.03.2028 -
Bazoumana Touré Newcastle United Active 149 / 151 40% 4 18.02.2028 -
Kauã Moraes Flamengo Active 133 / 141 40% 7 08.02.2028 -
Matias Siltanen Malmo FF Active 123 / 115 40% 6 06.02.2028 -
Giovanni Leoni Lincoln City Active 137 / 153 40% 6 31.01.2028 -
Pedro Baltika Active 139 / 141 40% 1 26.01.2028 -
Lucas Høgsberg RC Strasbourg Active 144 / 154 40% 7 11.01.2028 -
Victor Froholdt Porto Active 155 / 167 40% 4 11.01.2028 -
Izan Merino Málaga Active 134 / 137 40% 4 11.01.2028 -
Ferran Torres Paris Saint-Germain Active 164 / 164 66% 1 01.01.2028 Approve
Nazareno Roselli Defensa y Justicia Active 114 / 135 40% 9 31.12.2027 -
Victor Hernandez Santa Fe Active 124 / 127 40% 20 11.12.2027 -
Juan Manuel Villalba Tigre Active 115 / 133 40% 6 10.12.2027 -
Vinícius Lira São Paulo Active 116 / 139 40% 7 10.12.2027 -
Adam Aznou Everton Active 130 / 131 40% 4 09.12.2027 -
Caleb Yirenkyi Coventry City Active 142 / 149 40% 13 03.12.2027 -
Pau Cubarsí Real Sociedad Active 162 / 167 40% 7 01.12.2027 -
Ollie Scarles West Ham United Active 133 / 139 40% 31 29.11.2027 -
Esquerdinha Notts County Active 122 / 137 40% 1 29.11.2027 -
Matteo Pérez Vinlöf Dinamo Zagreb Active 125 / 115 40% 1 24.11.2027 -
Celías Ingenthron Platense Active 111 / 111 40% 3 18.11.2027 -
Alejandro Almaraz NK Celje Active 112 / 126 40% 7 14.11.2027 -
Agustín Obregón River Plate Active 112 / 102 40% 7 02.11.2027 -
Adrian Skogmar Malmo FF Active 119 / 120 40% 1 02.11.2027 -
Lucas Bergvall Tottenham Active 151 / 148 40% 3 18.10.2027 -
Agustín Medina Lanús Active 116 / 121 40% 1 17.10.2027 -
Santiago Murillo Alianza Petrolera Active 131 / 130 40% 4 13.10.2027 -
Ulises Giménez River Plate Active 109 / 119 40% 3 11.10.2027 -
Yusi Alavés Active 137 / 144 40% 8 01.10.2027 -
Eliás Montiel Borussia Dortmund Active 138 / 135 40% 4 29.09.2027 -
Malick Yalcouyé Brighton Active 132 / 144 40% 1 23.09.2027 -
Leo Castledine Middlesbrough Active 130 / 136 40% 7 20.06.2027 -
Olívio Tomé Benfica Active 116 / 122 40% 7 19.06.2027 -
Jonathan Asp-Jensen Deportivo La Coruña Active 126 / 124 40% 2 13.06.2027 -
Ethan Williams Peterborough United Active 116 / 127 40% 7 10.06.2027 -
Kirill Glebov CSKA Moscow Active 130 / 140 40% 14 08.06.2027 -
Rafael Moreno Atletico Venezuela Active 112 / 120 40% 1 08.06.2027 -
Kang-In Lee Villarreal Active 157 / 158 66% 1 01.06.2027 -
Joško Gvardiol Manchester City Active 162 / 163 67% 1 01.06.2027 Approve
Romelle Donovan Brentford Active 124 / 133 40% 6 29.05.2027 -
Sascha Britschgi AC Milan Active 122 / 120 40% 1 29.05.2027 -
Yussif Saidu Zaragoza Active 124 / 114 40% 7 26.05.2027 -
Gianluca Prestianni Benfica Active 134 / 135 40% 7 21.05.2027 -
Nikolaus Wurmbrand Girona Active 119 / 139 40% 2 20.05.2027 -
Othmane Maamma Watford Active 122 / 118 40% 9 18.05.2027 -
Miguel Figueiredo Benfica Active 105 / 122 40% 1 17.05.2027 -
Mohamadou Kanté Crawley Town Active 117 / 127 40% 4 11.05.2027 -
Gorka Gorosabel Real Sociedad Active 108 / 129 67% 5 07.05.2027 -
Louis Leroux FC Nantes Active 125 / 119 40% 5 07.05.2027 -
Chemsdine Talbi Sunderland Active 146 / 146 40% 16 02.05.2027 -
James Bacca La Equidad Active 130 / 114 40% 2 29.04.2027 -
José Pachuca Puebla Active 112 / 103 40% 2 28.04.2027 -
Lovro Zvonarek Estrela da Amadora Active 124 / 137 40% 2 16.04.2027 -
Gessime Yassine RC Strasbourg Active 120 / 121 40% 2 15.04.2027 -
Christian Mawissa Monaco Active 127 / 135 40% 2 11.04.2027 -
Luís Guilherme Sporting CP Active 129 / 130 40% 1 06.04.2027 -
Emirhan Başyiğit Sivasspor Active 113 / 108 40% 1 06.04.2027 -
Kobbie Mainoo Manchester United Active 153 / 167 40% 9 01.04.2027 -
Alpha Touré FC Metz Active 112 / 111 40% 1 29.03.2027 -
Malick Fofana Sunderland Active 142 / 144 40% 4 24.03.2027 -
Yael Padilla Tijuana Active 110 / 111 40% 7 22.03.2027 -
Antoni Milambo Brentford Active 138 / 147 40% 3 21.03.2027 -
Rocco Vata Watford Active 125 / 121 40% 7 17.03.2027 -
Joaquin Seys Club Brugge Active 131 / 135 40% 1 16.03.2027 -
Mathys Tel Tottenham Active 145 / 142 40% 3 14.03.2027 -
Dehmaine Tabibou FC Nantes Active 125 / 131 40% 2 04.03.2027 -
Nico O'Reilly Manchester City Active 153 / 159 40% 11 03.03.2027 -
David Mella Deportivo La Coruña Active 130 / 119 40% 1 19.02.2027 -
Marc Pubill Atlético Madrid Active 146 / 140 40% 4 08.02.2027 -
Nico González Newcastle United Active 161 / 172 40% 1 08.02.2027 -
Manu Koné AS Roma Active 167 / 154 40% 2 07.02.2027 Needs More Info
Boubacar Kamara Aston Villa Active 163 / 158 40% 1 06.02.2027 Needs More Info
Moisés Caicedo Chelsea Active 174 / 158 40% 1 06.02.2027 -
Johnny Cardoso Atlético Madrid Active 156 / 159 40% 2 05.02.2027 -
Amadou Onana Aston Villa Active 153 / 160 40% 1 05.02.2027 -
Sven Botman Newcastle United Active 156 / 159 40% 1 04.02.2027 -
Jarrad Branthwaite Everton Active 154 / 160 40% 1 04.02.2027 -
Alex Scott Bournemouth Active 151 / 154 40% 1 03.02.2027 -
Curtis Jones Inter Active 153 / 151 40% 1 03.02.2027 Needs More Info
Lewis Hall Newcastle United Active 152 / 146 40% 2 02.02.2027 -
Óscar Mingueza Crystal Palace Active 150 / 153 40% 1 01.02.2027 -
Yehvann Diouf OGC Nice Active 136 / 132 40% 1 18.01.2027 -
Joseph Leclercq Tottenham Active 154 / 144 40% 1 18.01.2027 -
Bobby Clark Derby County Active 123 / 139 40% 6 14.01.2027 -
Tristan Degreef Anderlecht Active 129 / 124 40% 4 10.01.2027 -
Tomás Aranda Boca Juniors Active 116 / 103 40% 6 02.01.2027 -
Nico Williams Athletic Bilbao Active 161 / 159 83% 1 02.01.2027 Approve
Tyler Morton Olympique Lyonnais Active 142 / 145 68% 1 01.01.2027 Approve
Robert FC Copenhagen Active 127 / 135 40% 4 29.12.2026 -
Christian Pulisic AC Milan Active 167 / 152 40% 1 28.12.2026 -
Jorge De Frutos Rayo Vallecano Active 150 / 151 40% 1 28.12.2026 -
Cody Gakpo Liverpool Active 160 / 154 40% 5 26.12.2026 -
Luis Suárez Sporting CP Active 159 / 159 40% 1 26.12.2026 -
Facundo Di Biasi Gimnasia La Plata Active 119 / 138 40% 3 11.12.2026 -
Lautaro Vargas Unión de Santa Fe Active 114 / 116 40% 6 09.12.2026 -
Jeremías Merlo Gimnasia La Plata Active 125 / 126 40% 6 08.12.2026 -
Dani Olmo Barcelona Active 160 / 166 40% 2 07.12.2026 -
Ismaïla Sarr Crystal Palace Active 147 / 137 40% 1 07.12.2026 -
Ignacio Perruzzi San Lorenzo Active 117 / 129 40% 7 03.12.2026 -
Morgan Rogers Chelsea Active 156 / 170 40% 2 27.11.2026 -
Kevin Schade Chelsea Active 152 / 159 40% 2 27.11.2026 -
Kai Havertz Arsenal Active 160 / 161 40% 4 26.11.2026 -
Alan Forneris Racing Club Active 112 / 103 40% 3 24.11.2026 -
Giovanni Baroni Talleres Active 101 / 112 40% 4 20.11.2026 -
Kyriani Sabbe Club Brugge Active 118 / 127 40% 1 17.11.2026 -
Joaquín Tobio Burgos Pachuca Active 121 / 120 40% 5 15.11.2026 -
Iliman N'Diaye Everton Active 159 / 164 40% 2 15.11.2026 -
Mikel Oyarzábal Real Sociedad Active 160 / 156 40% 2 12.11.2026 -
Matheus Cunha Manchester United Active 156 / 151 40% 4 08.11.2026 -
Themba Dala Black Aces Active 114 / 101 40% 1 05.11.2026 -
Ramiro Hernandes Belgrano Active 124 / 116 40% 2 04.11.2026 -
Gonçalo Guedes Real Sociedad Active 148 / 137 40% 3 03.11.2026 -
Lautaro Martínez Inter Active 172 / 163 40% 2 01.11.2026 -
Jarrod Bowen West Ham United Active 153 / 156 40% 1 01.11.2026 -
Julián Álvarez Atlético Madrid Active 172 / 181 40% 2 28.10.2026 -
Viktor Gyökeres Arsenal Active 153 / 143 40% 2 26.10.2026 -
Federico Chiesa Liverpool Active 157 / 142 40% 1 26.10.2026 -
Juan Velázquez Belgrano Active 124 / 136 40% 2 22.10.2026 -
Wilson Odobert Brighton Active 135 / 130 40% 1 20.10.2026 -
Diego Gaitán Maipú Active 101 / 122 40% 4 15.10.2026 -
Matvey Safonov Paris Saint-Germain Active 151 / 154 40% 1 12.10.2026 -
Rayan Cherki Manchester City Active 165 / 153 40% 1 04.10.2026 -
Marcus Rashford Manchester United Active 156 / 161 40% 1 04.10.2026 -
Ademola Lookman Atlético Madrid Active 157 / 166 40% 1 03.10.2026 -
Valentino Acuña Newell's Old Boys Active 107 / 136 40% 1 19.09.2026 -
Jonás Luna Wanderers Active 118 / 124 40% 1 26.08.2026 -
João Neves Paris Saint-Germain Active 167 / 168 40% 1 26.08.2026 -
Daijiro Chirino Almería Active 133 / 142 83% 1 24.08.2026 Approve
Joel Medina Independiente Active 104 / 139 40% 1 18.08.2026 -
Nahuel Arias San Lorenzo Active 115 / 109 40% 1 16.08.2026 -